Time;durP1;ratioP1;P1;durP2;ratioP2;P2;SDS_P1;SDS_P2;PMS_P1;PMS_P2;Temp;Humidity;BMP_temperature;BMP_pressure;BME280_temperature;BME280_humidity;BME280_pressure;Samples;Min_cycle;Max_cycle;Signal;HPM_P1;HPM_P2
2022/07/05 00:01:53;;;;;;;;;;;;;;;-149.78;100.00;50197.66;4925863;29;19970;-69
2022/07/05 00:04:19;;;;;;;;;;;;;;;-149.78;100.00;50164.41;4915939;29;20660;-69
2022/07/05 00:09:29;;;;;;;;;;;;;;;-149.78;100.00;50164.41;4930098;29;19919;-69
2022/07/05 00:11:54;;;;;;;;;;;;;;;-149.78;100.00;50160.50;4926888;29;20294;-69
2022/07/05 00:14:19;;;;;;;;;;;;;;;-149.78;100.00;50174.19;4929710;29;19931;-69
2022/07/05 00:16:45;;;;;;;;;;;;;;;-149.78;100.00;50189.81;4927981;29;20622;-69
2022/07/05 00:19:10;;;;;;;;;;;;;;;-149.78;100.00;50197.66;4926870;29;20021;-69
2022/07/05 00:21:36;;;;;;;;;;;;;;;-149.78;100.00;50217.19;4926566;29;19931;-69
2022/07/05 00:24:01;;;;;;;;;;;;;;;-149.78;100.00;50197.66;4929354;29;20525;-69
2022/07/05 00:26:27;;;;;;;;;;;;;;;-149.78;100.00;50162.44;4928821;29;19970;-67
2022/07/05 00:28:53;;;;;;;;;;;;;;;-149.78;100.00;50166.34;4927229;29;19923;-69
2022/07/05 00:31:18;;;;;;;;;;;;;;;-149.78;100.00;50146.81;4927989;29;19930;-69
2022/07/05 00:33:44;;;;;;;;;;;;;;;-149.78;100.00;50189.81;4929634;29;20389;-69
2022/07/05 00:36:09;;;;;;;;;;;;;;;-149.78;100.00;50185.91;4925162;29;19923;-69
2022/07/05 00:38:34;;;;;;;;;;;;;;;-149.78;100.00;50162.44;4928185;29;20367;-69
2022/07/05 00:41:00;;;;;;;;;;;;;;;-149.78;100.00;50187.88;4924810;29;20029;-69
2022/07/05 00:43:25;;;;;;;;;;;;;;;-149.78;100.00;50197.66;4927916;29;19927;-69
2022/07/05 00:45:51;;;;;;;;;;;;;;;-149.78;100.00;50189.81;4926176;29;19930;-69
2022/07/05 00:48:18;;;;;;;;;;;;;;;-149.78;100.00;50182.00;4911676;29;20377;-69
2022/07/05 00:50:43;;;;;;;;;;;;;;;-149.78;100.00;50178.09;4927287;29;19923;-69
2022/07/05 00:53:09;;;;;;;;;;;;;;;-149.78;100.00;50197.66;4927093;29;19950;-69
2022/07/05 00:55:35;;;;;;;;;;;;;;;-149.78;100.00;50205.47;4928938;29;19930;-68
2022/07/05 00:58:00;;;;;;;;;;;;;;;-149.78;100.00;50189.81;4927859;29;19927;-69
2022/07/05 01:00:26;;;;;;;;;;;;;;;-149.78;100.00;50178.09;4926535;29;19919;-69
2022/07/05 01:02:53;;;;;;;;;;;;;;;-149.78;100.00;50187.88;4927645;29;20294;-69
2022/07/05 01:05:19;;;;;;;;;;;;;;;-149.78;100.00;50219.16;4927215;29;20267;-69
2022/07/05 01:07:45;;;;;;;;;;;;;;;-149.78;100.00;50199.59;4928686;29;20001;-69
2022/07/05 01:10:14;;;;;;;;;;;;;;;-149.78;100.00;50182.00;4927239;29;20017;-69
2022/07/05 01:12:43;;;;;;;;;;;;;;;-149.78;100.00;50209.38;4912575;29;19927;-69
2022/07/05 01:15:13;;;;;;;;;;;;;;;-149.78;100.00;50182.00;4911482;29;19949;-69
2022/07/05 01:17:38;;;;;;;;;;;;;;;-149.78;100.00;50197.66;4927354;29;20343;-69
2022/07/05 01:20:05;;;;;;;;;;;;;;;-149.78;100.00;50176.13;4928643;29;19926;-69
2022/07/05 01:22:38;;;;;;;;;;;;;;;-149.78;100.00;50197.66;4926267;29;19927;-69
2022/07/05 01:25:04;;;;;;;;;;;;;;;-149.78;100.00;50189.81;4928749;29;19927;-69
2022/07/05 01:27:30;;;;;;;;;;;;;;;-149.78;100.00;50203.50;4911546;29;20248;-69
2022/07/05 01:29:55;;;;;;;;;;;;;;;-149.78;100.00;50209.38;4928060;29;19965;-69
2022/07/05 01:32:23;;;;;;;;;;;;;;;-149.78;100.00;50189.81;4911203;29;20262;-70
2022/07/05 01:34:49;;;;;;;;;;;;;;;-149.78;100.00;50166.34;4927062;29;20001;-70
2022/07/05 01:37:14;;;;;;;;;;;;;;;-149.78;100.00;50178.09;4927759;29;20018;-70
2022/07/05 01:39:39;;;;;;;;;;;;;;;-149.78;100.00;50178.09;4909809;29;19969;-69
2022/07/05 01:42:06;;;;;;;;;;;;;;;-149.78;100.00;50213.28;4928018;29;19923;-69
2022/07/05 01:44:31;;;;;;;;;;;;;;;-149.78;100.00;50178.09;4928476;29;20009;-69
2022/07/05 01:46:59;;;;;;;;;;;;;;;-149.78;100.00;50189.81;4924774;29;20006;-69
2022/07/05 01:49:25;;;;;;;;;;;;;;;-149.78;100.00;50221.13;4928117;29;20358;-69
2022/07/05 01:51:52;;;;;;;;;;;;;;;-149.78;100.00;50199.59;4925354;29;20343;-69
2022/07/05 01:54:18;;;;;;;;;;;;;;;-149.78;100.00;50170.25;4926298;29;20032;-69
2022/07/05 01:56:43;;;;;;;;;;;;;;;-149.78;100.00;50197.66;4927417;29;19930;-69
2022/07/05 01:59:09;;;;;;;;;;;;;;;-149.78;100.00;50232.84;4926890;29;19923;-74
2022/07/05 02:01:36;;;;;;;;;;;;;;;-149.78;100.00;50203.50;4927541;29;19928;-69
2022/07/05 02:04:03;;;;;;;;;;;;;;;-149.78;100.00;50183.97;4900475;29;19973;-69
2022/07/05 02:06:30;;;;;;;;;;;;;;;-149.78;100.00;50199.59;4911694;29;19919;-69
2022/07/05 02:08:55;;;;;;;;;;;;;;;-149.78;100.00;50197.66;4915002;29;19966;-69
2022/07/05 02:11:21;;;;;;;;;;;;;;;-149.78;100.00;50228.94;4895569;29;19927;-69
2022/07/05 02:13:46;;;;;;;;;;;;;;;-149.78;100.00;50201.56;4911345;29;20392;-69
2022/07/05 02:16:11;;;;;;;;;;;;;;;-149.78;100.00;50203.50;4915640;29;20450;-69
2022/07/05 02:18:37;;;;;;;;;;;;;;;-149.78;100.00;50180.03;4915420;29;19924;-69
2022/07/05 02:21:03;;;;;;;;;;;;;;;-149.78;100.00;50189.81;4916659;29;20335;-69
2022/07/05 02:23:28;;;;;;;;;;;;;;;-149.78;100.00;50217.19;4907170;29;19952;-69
2022/07/05 02:25:53;;;;;;;;;;;;;;;-149.78;100.00;50180.03;4913451;29;19931;-69
2022/07/05 02:28:19;;;;;;;;;;;;;;;-149.78;100.00;50207.44;4899273;29;19962;-69
2022/07/05 02:30:45;;;;;;;;;;;;;;;-149.78;100.00;50213.28;4905134;29;19930;-69
2022/07/05 02:33:11;;;;;;;;;;;;;;;-149.78;100.00;50205.47;4910131;29;19926;-69
2022/07/05 02:35:38;;;;;;;;;;;;;;;-149.78;100.00;50197.66;4904035;29;19935;-69
2022/07/05 02:38:03;;;;;;;;;;;;;;;-149.78;100.00;50221.13;4910161;29;19923;-69
2022/07/05 02:40:29;;;;;;;;;;;;;;;-149.78;100.00;50217.19;4905704;29;19923;-69
2022/07/05 02:42:54;;;;;;;;;;;;;;;-149.78;100.00;50201.56;4908014;29;19919;-69
2022/07/05 02:45:21;;;;;;;;;;;;;;;-149.78;100.00;50197.66;4914772;29;19931;-69
2022/07/05 02:47:46;;;;;;;;;;;;;;;-149.78;100.00;50217.19;4898950;29;19930;-69
2022/07/05 02:50:12;;;;;;;;;;;;;;;-149.78;100.00;50205.47;4908202;29;19942;-69
2022/07/05 02:52:40;;;;;;;;;;;;;;;-149.78;100.00;50221.13;4915426;29;20367;-69
2022/07/05 02:55:06;;;;;;;;;;;;;;;-149.78;100.00;50217.19;4911812;29;20071;-69
2022/07/05 02:57:31;;;;;;;;;;;;;;;-149.78;100.00;50217.19;4911478;29;20283;-69
2022/07/05 02:59:58;;;;;;;;;;;;;;;-149.78;100.00;50225.03;4906861;29;19930;-69
2022/07/05 03:02:24;;;;;;;;;;;;;;;-149.78;100.00;50178.09;4915619;29;19923;-69
2022/07/05 03:04:49;;;;;;;;;;;;;;;-149.78;100.00;50162.44;4909134;29;19957;-69
2022/07/05 03:07:15;;;;;;;;;;;;;;;-149.78;100.00;50166.34;4920094;29;19943;-69
2022/07/05 03:09:40;;;;;;;;;;;;;;;-149.78;100.00;50213.28;4917613;29;20276;-69
2022/07/05 03:12:06;;;;;;;;;;;;;;;-149.78;100.00;50225.03;4918558;29;19915;-69
2022/07/05 03:14:32;;;;;;;;;;;;;;;-149.78;100.00;50228.94;4920430;29;20306;-69
2022/07/05 03:16:57;;;;;;;;;;;;;;;-149.78;100.00;50209.38;4900339;29;19923;-69
2022/07/05 03:19:22;;;;;;;;;;;;;;;-149.78;100.00;50201.56;4917646;29;19945;-69
2022/07/05 03:21:48;;;;;;;;;;;;;;;-149.78;100.00;50205.47;4919190;29;19924;-68
2022/07/05 03:24:13;;;;;;;;;;;;;;;-149.78;100.00;50205.47;4920062;29;19970;-69
2022/07/05 03:26:38;;;;;;;;;;;;;;;-149.78;100.00;50174.19;4918065;29;20441;-69
2022/07/05 03:29:04;;;;;;;;;;;;;;;-149.78;100.00;50213.28;4920385;29;19919;-69
2022/07/05 03:31:29;;;;;;;;;;;;;;;-149.78;100.00;50170.25;4906551;29;19928;-69
2022/07/05 03:33:56;;;;;;;;;;;;;;;-149.78;100.00;50232.84;4908891;29;19931;-69
2022/07/05 03:36:21;;;;;;;;;;;;;;;-149.78;100.00;50197.66;4918246;29;19923;-69
2022/07/05 03:38:47;;;;;;;;;;;;;;;-149.78;100.00;50199.59;4906929;29;19930;-69
2022/07/05 03:41:12;;;;;;;;;;;;;;;-149.78;100.00;50232.84;4902677;29;19927;-69
2022/07/05 03:43:38;;;;;;;;;;;;;;;-149.78;100.00;50201.56;4920170;29;19919;-69
2022/07/05 03:46:03;;;;;;;;;;;;;;;-149.78;100.00;50225.03;4911830;29;20013;-69
2022/07/05 03:48:29;;;;;;;;;;;;;;;-149.78;100.00;50213.28;4903320;29;19987;-69
2022/07/05 03:50:54;;;;;;;;;;;;;;;-149.78;100.00;50223.06;4918958;29;19923;-69
2022/07/05 03:53:20;;;;;;;;;;;;;;;-149.78;100.00;50174.19;4918857;29;19927;-69
2022/07/05 03:55:45;;;;;;;;;;;;;;;-149.78;100.00;50225.03;4908306;29;19931;-69
2022/07/05 03:58:11;;;;;;;;;;;;;;;-149.78;100.00;50213.28;4902324;29;19923;-69
2022/07/05 04:00:36;;;;;;;;;;;;;;;-149.78;100.00;50185.91;4902345;29;20017;-69
2022/07/05 04:03:01;;;;;;;;;;;;;;;-149.78;100.00;50205.47;4919445;29;19923;-69
2022/07/05 04:05:27;;;;;;;;;;;;;;;-149.78;100.00;50205.47;4901359;29;20385;-69
2022/07/05 04:07:55;;;;;;;;;;;;;;;-149.78;100.00;50183.97;4901608;29;19923;-69
2022/07/05 04:10:23;;;;;;;;;;;;;;;-149.78;100.00;50182.00;4918632;29;19955;-69
2022/07/05 04:12:52;;;;;;;;;;;;;;;-149.78;100.00;50182.00;4902646;29;20363;-69
2022/07/05 04:15:18;;;;;;;;;;;;;;;-149.78;100.00;50217.19;4918863;29;19995;-69
2022/07/05 04:17:51;;;;;;;;;;;;;;;-149.78;100.00;50228.94;4918794;29;19919;-69
2022/07/05 04:20:21;;;;;;;;;;;;;;;-149.78;100.00;50217.19;4918205;29;19971;-69
2022/07/05 04:22:47;;;;;;;;;;;;;;;-149.78;100.00;50256.31;4919541;29;19919;-69
2022/07/05 04:25:16;;;;;;;;;;;;;;;-149.78;100.00;50203.50;4906132;29;19933;-69
2022/07/05 04:27:41;;;;;;;;;;;;;;;-149.78;100.00;50209.38;4919002;29;19994;-69
2022/07/05 04:30:07;;;;;;;;;;;;;;;-149.78;100.00;50223.06;4915144;29;19931;-69
2022/07/05 04:32:33;;;;;;;;;;;;;;;-149.78;100.00;50201.56;4901436;29;19927;-69
2022/07/05 04:34:59;;;;;;;;;;;;;;;-149.78;100.00;50174.19;4916476;29;20434;-69
2022/07/05 04:37:24;;;;;;;;;;;;;;;-149.78;100.00;50252.41;4908746;29;20059;-69
2022/07/05 04:39:49;;;;;;;;;;;;;;;-149.78;100.00;50228.94;4916458;29;19923;-69
2022/07/05 04:42:15;;;;;;;;;;;;;;;-149.78;100.00;50197.66;4919123;29;19934;-69
2022/07/05 04:44:41;;;;;;;;;;;;;;;-149.78;100.00;50236.75;4911799;29;20380;-69
2022/07/05 04:47:06;;;;;;;;;;;;;;;-149.78;100.00;50221.13;4898679;29;19923;-69
2022/07/05 04:49:31;;;;;;;;;;;;;;;-149.78;100.00;50185.91;4908954;29;19923;-69
2022/07/05 04:51:58;;;;;;;;;;;;;;;-149.78;100.00;50183.97;4918207;29;19946;-69
2022/07/05 04:54:23;;;;;;;;;;;;;;;-149.78;100.00;50221.13;4902063;29;20382;-69
2022/07/05 04:56:49;;;;;;;;;;;;;;;-149.78;100.00;50205.47;4873959;29;20387;-69
2022/07/05 04:59:15;;;;;;;;;;;;;;;-149.78;100.00;50217.19;4917367;29;19923;-69
2022/07/05 05:01:40;;;;;;;;;;;;;;;-149.78;100.00;50185.91;4917188;29;19923;-69
2022/07/05 05:04:05;;;;;;;;;;;;;;;-149.78;100.00;50226.97;4918748;29;20367;-69
2022/07/05 05:06:31;;;;;;;;;;;;;;;-149.78;100.00;50197.66;4917606;29;19927;-69
2022/07/05 05:08:56;;;;;;;;;;;;;;;-149.78;100.00;50232.84;4918192;29;19967;-69
2022/07/05 05:11:22;;;;;;;;;;;;;;;-149.78;100.00;50197.66;4905783;29;19950;-69
2022/07/05 05:13:48;;;;;;;;;;;;;;;-149.78;100.00;50230.88;4916647;29;19933;-69
2022/07/05 05:16:13;;;;;;;;;;;;;;;-149.78;100.00;50215.25;4913874;29;20021;-69
2022/07/05 05:18:39;;;;;;;;;;;;;;;-149.78;100.00;50236.75;4916522;29;20022;-69
2022/07/05 05:21:04;;;;;;;;;;;;;;;-149.78;100.00;50164.41;4917405;29;19920;-69
2022/07/05 05:23:30;;;;;;;;;;;;;;;-149.78;100.00;50207.44;4917480;29;19931;-68
2022/07/05 05:25:56;;;;;;;;;;;;;;;-149.78;100.00;50185.91;4917720;29;19983;-69
2022/07/05 05:28:21;;;;;;;;;;;;;;;-149.78;100.00;50162.44;4915485;29;19923;-69
2022/07/05 05:30:47;;;;;;;;;;;;;;;-149.78;100.00;50225.03;4900847;29;19989;-69
2022/07/05 05:33:13;;;;;;;;;;;;;;;-149.78;100.00;50178.09;4917697;29;19933;-69
2022/07/05 05:35:39;;;;;;;;;;;;;;;-149.78;100.00;50197.66;4909790;29;20280;-69
2022/07/05 05:38:04;;;;;;;;;;;;;;;-149.78;100.00;50221.13;4900398;29;19919;-69
2022/07/05 05:40:30;;;;;;;;;;;;;;;-149.78;100.00;50207.44;4917746;29;19927;-69
2022/07/05 05:42:56;;;;;;;;;;;;;;;-149.78;100.00;50189.81;4904631;29;19919;-69
2022/07/05 05:45:22;;;;;;;;;;;;;;;-149.78;100.00;50174.19;4916169;29;19930;-69
2022/07/05 05:47:56;;;;;;;;;;;;;;;-149.78;100.00;50166.34;5107415;27;19916;-68
2022/07/05 05:50:25;;;;;;;;;;;;;;;-149.78;100.00;50185.91;5085738;28;19920;-68
2022/07/05 05:52:51;;;;;;;;;;;;;;;-149.78;100.00;50230.88;5084228;28;19924;-68
2022/07/05 05:55:17;;;;;;;;;;;;;;;-149.78;100.00;50213.28;5097915;28;19923;-68
2022/07/05 05:57:42;;;;;;;;;;;;;;;-149.78;100.00;50201.56;5080113;28;19929;-68
2022/07/05 06:00:09;;;;;;;;;;;;;;;-149.78;100.00;50209.38;5087958;28;19925;-68
2022/07/05 06:02:35;;;;;;;;;;;;;;;-149.78;100.00;50205.47;5105109;28;20012;-68
2022/07/05 06:05:00;;;;;;;;;;;;;;;-149.78;100.00;50211.34;5082029;28;20003;-68
2022/07/05 06:07:26;;;;;;;;;;;;;;;-149.78;100.00;50185.91;5086812;28;19981;-68
2022/07/05 06:09:51;;;;;;;;;;;;;;;-149.78;100.00;50178.09;5083979;28;19935;-69
2022/07/05 06:12:18;;;;;;;;;;;;;;;-149.78;100.00;50185.91;5087390;28;19920;-68
2022/07/05 06:14:43;;;;;;;;;;;;;;;-149.78;100.00;50217.19;5078017;28;20548;-69
2022/07/05 06:17:08;;;;;;;;;;;;;;;-149.78;100.00;50183.97;5097650;28;19927;-69
2022/07/05 06:19:34;;;;;;;;;;;;;;;-149.78;100.00;50197.66;5097126;28;19963;-69
2022/07/05 06:21:59;;;;;;;;;;;;;;;-149.78;100.00;50185.91;5096279;28;19988;-68
2022/07/05 06:24:24;;;;;;;;;;;;;;;-149.78;100.00;50217.19;5098925;28;19990;-69
2022/07/05 06:26:50;;;;;;;;;;;;;;;-149.78;100.00;50201.56;5095780;28;19935;-68
2022/07/05 06:29:16;;;;;;;;;;;;;;;-149.78;100.00;50170.25;5096862;28;19927;-68
2022/07/05 06:31:42;;;;;;;;;;;;;;;-149.78;100.00;50146.81;5096408;28;19927;-68
2022/07/05 06:34:10;;;;;;;;;;;;;;;-149.78;87.88;50127.25;5098485;28;20001;-69
2022/07/05 06:36:35;;;;;;;;;;;;;;;-149.78;82.66;50135.06;5096424;28;19920;-69
2022/07/05 06:39:01;;;;;;;;;;;;;;;-149.78;75.85;50095.94;5095590;28;19951;-69
2022/07/05 06:41:26;;;;;;;;;;;;;;;-149.78;73.31;50072.50;5095909;28;20243;-68
2022/07/05 06:43:51;;;;;;;;;;;;;;;-149.78;68.62;50084.22;5094650;28;20750;-68
2022/07/05 06:46:17;;;;;;;;;;;;;;;-149.78;67.49;50099.88;5092503;28;19935;-68
2022/07/05 06:48:42;;;;;;;;;;;;;;;-149.78;62.98;50052.94;5098211;28;19920;-68
2022/07/05 06:51:08;;;;;;;;;;;;;;;-149.78;60.07;50082.25;5096143;28;19920;-68
2022/07/05 06:53:33;;;;;;;;;;;;;;;-149.78;60.81;50054.88;5095995;28;19970;-69
2022/07/05 06:55:59;;;;;;;;;;;;;;;-149.78;55.11;50025.56;5097289;28;19919;-69
2022/07/05 06:58:25;;;;;;;;;;;;;;;-149.78;52.14;50076.41;5087792;28;19920;-69
2022/07/05 07:00:50;;;;;;;;;;;;;;;-149.78;51.92;50056.84;5079583;28;19928;-68
2022/07/05 07:03:16;;;;;;;;;;;;;;;-149.78;52.79;50076.41;5082521;28;19924;-67
2022/07/05 07:05:41;;;;;;;;;;;;;;;-149.78;56.86;50107.69;5083511;28;19963;-69
2022/07/05 07:10:51;;;;;;;;;;;;;;;-149.78;62.81;50056.84;5076491;28;19963;-68
2022/07/05 07:13:16;;;;;;;;;;;;;;;-149.78;57.90;50045.09;5079661;28;19982;-69
2022/07/05 07:15:41;;;;;;;;;;;;;;;-149.78;55.11;50052.94;5082774;28;19928;-68
2022/07/05 07:18:07;;;;;;;;;;;;;;;-149.78;59.81;50052.94;5080686;28;19939;-68
2022/07/05 07:20:32;;;;;;;;;;;;;;;-149.78;64.00;50099.88;5079926;28;19938;-69
2022/07/05 07:22:57;;;;;;;;;;;;;;;-149.78;68.26;50123.34;5081015;28;19963;-68
2022/07/05 07:25:23;;;;;;;;;;;;;;;-149.78;68.33;50076.41;5080107;28;20405;-68
2022/07/05 07:27:49;;;;;;;;;;;;;;;-149.78;74.71;50095.94;5083492;28;19932;-68
2022/07/05 07:30:15;;;;;;;;;;;;;;;-149.78;72.28;50080.31;5078423;28;20271;-70
2022/07/05 07:32:41;;;;;;;;;;;;;;;-149.78;66.54;50049.03;5082998;28;19920;-70
2022/07/05 07:35:07;;;;;;;;;;;;;;;-149.78;67.35;50117.47;5075298;28;19931;-70
2022/07/05 07:37:33;;;;;;;;;;;;;;;-149.78;70.65;50115.50;5071752;28;20734;-70
2022/07/05 07:40:00;;;;;;;;;;;;;;;-149.78;77.54;50103.78;5072184;28;19942;-70
2022/07/05 07:42:26;;;;;;;;;;;;;;;-149.78;84.81;50135.06;5073338;28;19985;-70
2022/07/05 07:44:52;;;;;;;;;;;;;;;-149.78;94.56;50123.34;5073139;28;20408;-70
2022/07/05 07:47:17;;;;;;;;;;;;;;;-149.78;94.38;50123.34;5068772;28;19932;-70
2022/07/05 07:49:43;;;;;;;;;;;;;;;-149.78;93.73;50162.44;5069564;28;19934;-69
2022/07/05 07:52:08;;;;;;;;;;;;;;;-149.78;97.40;50137.03;5071394;28;19949;-69
2022/07/05 07:54:33;;;;;;;;;;;;;;;-149.78;98.68;50111.59;5077578;28;19928;-70
2022/07/05 07:57:05;;;;;;;;;;;;;;;-149.78;100.00;50135.06;5080305;28;20468;-69
2022/07/05 07:59:30;;;;;;;;;;;;;;;-149.78;100.00;50158.53;5080632;28;19924;-69
2022/07/05 08:01:56;;;;;;;;;;;;;;;-149.78;100.00;50160.50;5082361;28;19993;-70
2022/07/05 08:04:21;;;;;;;;;;;;;;;-149.78;100.00;50119.41;5081899;28;20806;-69
2022/07/05 08:06:47;;;;;;;;;;;;;;;-149.78;100.00;50107.69;5084226;28;19924;-70
2022/07/05 08:09:13;;;;;;;;;;;;;;;-149.78;100.00;50103.78;5081979;28;19920;-71
2022/07/05 08:11:38;;;;;;;;;;;;;;;-149.78;93.76;50099.88;5083274;28;19924;-71
2022/07/05 08:14:04;;;;;;;;;;;;;;;-149.78;86.35;50070.53;5084264;28;20051;-70
2022/07/05 08:16:29;;;;;;;;;;;;;;;-149.78;79.42;50049.03;5082302;28;19924;-70
2022/07/05 08:21:39;;;;;;;;;;;;;;;-149.78;69.01;50058.78;5082816;28;19922;-70
2022/07/05 08:24:05;;;;;;;;;;;;;;;-149.78;70.52;50080.31;5084157;28;19919;-70
2022/07/05 08:26:31;;;;;;;;;;;;;;;-149.78;69.67;50056.84;5080966;28;19930;-70
2022/07/05 08:28:58;;;;;;;;;;;;;;;-149.78;70.79;50080.31;5084409;28;20989;-70
2022/07/05 08:31:24;;;;;;;;;;;;;;;-149.78;68.79;50064.66;5081437;28;19915;-70
2022/07/05 08:33:50;;;;;;;;;;;;;;;-149.78;67.54;50092.03;5082596;28;19955;-70
2022/07/05 08:36:16;;;;;;;;;;;;;;;-149.78;70.40;50084.22;5083118;28;20036;-70
2022/07/05 08:38:41;;;;;;;;;;;;;;;-149.78;69.14;50123.34;5084984;28;19927;-69
2022/07/05 08:41:07;;;;;;;;;;;;;;;-149.78;70.65;50041.19;5083553;28;19928;-68
2022/07/05 08:43:34;;;;;;;;;;;;;;;-149.78;68.47;50092.03;5084456;28;19966;-70
2022/07/05 08:46:00;;;;;;;;;;;;;;;-149.78;73.23;50103.78;5082266;28;21570;-70
2022/07/05 08:48:27;;;;;;;;;;;;;;;-149.78;73.79;50086.19;5081400;28;20018;-70
2022/07/05 08:50:54;;;;;;;;;;;;;;;-149.78;79.15;50099.88;5081454;28;19927;-70
2022/07/05 08:53:20;;;;;;;;;;;;;;;-149.78;84.57;50092.03;5077672;28;20388;-70
2022/07/05 08:55:45;;;;;;;;;;;;;;;-149.78;97.17;50078.34;5080610;28;20035;-70
2022/07/05 08:58:11;;;;;;;;;;;;;;;-149.78;86.83;50092.03;5078517;28;19939;-70
2022/07/05 09:00:38;;;;;;;;;;;;;;;-149.78;87.81;50103.78;5080335;28;19931;-70
2022/07/05 09:03:04;;;;;;;;;;;;;;;-149.78;91.30;50092.03;5081083;28;19916;-70
2022/07/05 09:05:30;;;;;;;;;;;;;;;-149.78;83.79;50088.13;5081439;28;19923;-70
2022/07/05 09:07:59;;;;;;;;;;;;;;;-149.78;86.01;50080.31;5081334;28;20367;-70
2022/07/05 09:10:26;;;;;;;;;;;;;;;-149.78;88.24;50076.41;5081515;28;19920;-67
2022/07/05 09:12:52;;;;;;;;;;;;;;;-149.78;100.00;50119.41;5081906;28;19928;-69
2022/07/05 09:15:18;;;;;;;;;;;;;;;-149.78;100.00;50095.94;5079302;28;19916;-70
2022/07/05 09:17:44;;;;;;;;;;;;;;;-149.78;100.00;50088.13;5081232;28;21286;-71
2022/07/05 09:20:11;;;;;;;;;;;;;;;-149.78;100.00;50080.31;5082544;28;19928;-70
2022/07/05 09:22:44;;;;;;;;;;;;;;;-149.78;84.85;50033.38;5083822;28;19932;-70
2022/07/05 09:25:19;;;;;;;;;;;;;;;-149.78;63.05;50015.78;5084271;28;19983;-71
2022/07/05 09:27:54;;;;;;;;;;;;;;;-149.78;53.16;49962.97;5082315;28;19924;-71
2022/07/05 09:30:28;;;;;;;;;;;;;;;-149.78;46.78;49980.56;5083063;28;19916;-70
2022/07/05 09:33:01;;;;;;;;;;;;;;;-149.78;48.16;49982.53;5082323;28;19923;-70
2022/07/05 09:35:27;;;;;;;;;;;;;;;-149.78;50.19;49976.66;5080491;28;20034;-70
2022/07/05 09:37:52;;;;;;;;;;;;;;;-149.78;50.82;50006.00;5083311;28;19920;-70
2022/07/05 09:40:18;;;;;;;;;;;;;;;-149.78;56.12;50043.16;5082956;28;19931;-70
2022/07/05 09:42:43;;;;;;;;;;;;;;;-149.78;62.66;50021.63;5083317;28;19927;-70
2022/07/05 09:45:09;;;;;;;;;;;;;;;-149.78;77.08;50080.31;5080278;28;19920;-70
2022/07/05 09:47:35;;;;;;;;;;;;;;;-149.78;76.88;50052.94;5084481;28;19955;-70
2022/07/05 09:50:04;;;;;;;;;;;;;;;-149.78;97.50;50041.19;5082063;28;19928;-70
2022/07/05 09:52:31;;;;;;;;;;;;;;;-149.78;75.87;50029.47;5082610;28;19921;-70
2022/07/05 09:55:19;;;;;;;;;;;;;;;-149.78;70.06;50060.75;5080838;28;19951;-70
2022/07/05 09:57:46;;;;;;;;;;;;;;;-149.78;67.73;50064.66;5082902;28;20060;-70
2022/07/05 10:00:19;;;;;;;;;;;;;;;-149.78;67.06;50041.19;5081008;28;19967;-70
2022/07/05 10:02:48;;;;;;;;;;;;;;;-149.78;68.74;50037.28;5081072;28;20911;-70
2022/07/05 10:05:17;;;;;;;;;;;;;;;-149.78;72.93;50052.94;5079842;28;20395;-69
2022/07/05 10:07:44;;;;;;;;;;;;;;;-149.78;76.43;50037.28;5083096;28;19928;-69
2022/07/05 10:10:18;;;;;;;;;;;;;;;-149.78;78.76;50064.66;5082148;28;20014;-70
2022/07/05 10:12:43;;;;;;;;;;;;;;;-149.78;87.33;50111.59;5083988;28;19920;-69
2022/07/05 10:15:10;;;;;;;;;;;;;;;-149.78;91.67;50090.09;5078693;28;20003;-69
2022/07/05 10:17:37;;;;;;;;;;;;;;;-149.78;100.00;50111.59;5079430;28;19978;-69
2022/07/05 10:20:08;;;;;;;;;;;;;;;-149.78;100.00;50052.94;5081009;28;20022;-70
2022/07/05 10:22:34;;;;;;;;;;;;;;;-149.78;100.00;50060.75;5080442;28;19923;-70
2022/07/05 10:25:00;;;;;;;;;;;;;;;-149.78;100.00;50084.22;5079079;28;19932;-69
2022/07/05 10:27:27;;;;;;;;;;;;;;;-149.78;100.00;50072.50;5079218;28;19939;-69
2022/07/05 10:29:53;;;;;;;;;;;;;;;-149.78;100.00;50062.72;5081224;28;19939;-70
2022/07/05 10:32:19;;;;;;;;;;;;;;;-149.78;100.00;50082.25;5080662;28;19924;-70
2022/07/05 10:34:46;;;;;;;;;;;;;;;-149.78;100.00;50082.25;5085821;28;19927;-70
2022/07/05 10:37:12;;;;;;;;;;;;;;;-149.78;100.00;50064.66;5101097;28;19920;-69
2022/07/05 10:39:37;;;;;;;;;;;;;;;-149.78;100.00;50064.66;5085046;28;20015;-70
2022/07/05 10:42:05;;;;;;;;;;;;;;;-149.78;100.00;50033.38;5084922;28;19923;-70
2022/07/05 10:44:34;;;;;;;;;;;;;;;-149.78;85.44;50035.34;5084398;28;19916;-69
2022/07/05 10:47:12;;;;;;;;;;;;;;;-149.78;92.71;50052.94;5085915;28;19920;-69
2022/07/05 10:49:38;;;;;;;;;;;;;;;-149.78;87.04;50056.84;5086449;28;20394;-69
2022/07/05 10:52:04;;;;;;;;;;;;;;;-149.78;82.06;50037.28;5083995;28;19920;-69
2022/07/05 10:54:31;;;;;;;;;;;;;;;-149.78;78.00;50056.84;5084897;28;19963;-69
2022/07/05 10:57:15;;;;;;;;;;;;;;;-149.78;79.31;50041.19;5083335;28;19924;-69
2022/07/05 10:59:59;;;;;;;;;;;;;;;-149.78;67.17;50015.78;5085223;28;20011;-70
2022/07/05 11:02:24;;;;;;;;;;;;;;;-149.78;60.56;49978.63;5085876;28;19916;-70
2022/07/05 11:04:55;;;;;;;;;;;;;;;-149.78;55.00;50013.81;5084486;28;19928;-70
2022/07/05 11:07:39;;;;;;;;;;;;;;;-149.78;58.34;49996.22;5085625;28;20256;-71
2022/07/05 11:10:06;;;;;;;;;;;;;;;-149.78;49.75;49984.50;5083763;28;19928;-70
2022/07/05 11:12:36;;;;;;;;;;;;;;;-149.78;51.27;50004.03;5085944;28;20390;-70
2022/07/05 11:15:10;;;;;;;;;;;;;;;-149.78;51.12;50013.81;5083220;28;20007;-70
2022/07/05 11:17:36;;;;;;;;;;;;;;;-149.78;47.71;50004.03;5088199;28;20011;-70
2022/07/05 11:20:05;;;;;;;;;;;;;;;-149.78;46.60;50002.09;5085996;28;19923;-70
2022/07/05 11:22:31;;;;;;;;;;;;;;;-149.78;46.73;50015.78;5086162;28;19923;-70
2022/07/05 11:24:57;;;;;;;;;;;;;;;-149.78;46.87;49947.34;5083675;28;19963;-70
2022/07/05 11:27:23;;;;;;;;;;;;;;;-149.78;47.35;49990.34;5082647;28;19994;-71
2022/07/05 11:29:49;;;;;;;;;;;;;;;-149.78;48.14;50009.91;5079818;28;20006;-70
2022/07/05 11:32:15;;;;;;;;;;;;;;;-149.78;46.49;50025.56;5083327;28;20379;-71
2022/07/05 11:34:41;;;;;;;;;;;;;;;-149.78;46.52;50037.28;5085060;28;19935;-71
2022/07/05 11:37:13;;;;;;;;;;;;;;;-149.78;45.90;50029.47;5085314;28;19924;-71
2022/07/05 11:39:40;;;;;;;;;;;;;;;-149.78;46.56;50006.00;5085723;28;20393;-71
2022/07/05 11:42:05;;;;;;;;;;;;;;;-149.78;45.46;50025.56;5082973;28;19931;-71
2022/07/05 11:44:34;;;;;;;;;;;;;;;-149.78;46.15;50025.56;5082976;28;19916;-71
2022/07/05 11:47:00;;;;;;;;;;;;;;;-149.78;45.60;50047.06;5083974;28;19963;-71
2022/07/05 11:49:26;;;;;;;;;;;;;;;-149.78;46.42;50002.09;5084746;28;20413;-70
2022/07/05 11:51:58;;;;;;;;;;;;;;;-149.78;45.98;49992.31;5077252;28;19963;-70
2022/07/05 11:54:25;;;;;;;;;;;;;;;-149.78;46.23;50006.00;5084894;28;19933;-70
2022/07/05 11:56:50;;;;;;;;;;;;;;;-149.78;45.48;50006.00;5084356;28;20426;-70
2022/07/05 11:59:20;;;;;;;;;;;;;;;-149.78;44.09;49994.25;5081513;28;19924;-70
2022/07/05 12:01:46;;;;;;;;;;;;;;;-149.78;44.01;50021.63;5085716;28;19916;-70
2022/07/05 12:04:11;;;;;;;;;;;;;;;-149.78;44.82;49980.56;5084242;28;19927;-70
2022/07/05 12:06:40;;;;;;;;;;;;;;;-149.78;46.66;50017.72;5086215;28;19928;-70
2022/07/05 12:09:06;;;;;;;;;;;;;;;-149.78;46.47;50015.78;5080420;28;19935;-70
2022/07/05 12:14:22;;;;;;;;;;;;;;;-149.78;46.92;50060.75;5075464;28;19928;-71
2022/07/05 12:16:49;;;;;;;;;;;;;;;-149.78;46.09;50023.59;5073082;28;19935;-70
2022/07/05 12:19:25;;;;;;;;;;;;;;;-149.78;45.20;50035.34;5073530;28;19927;-69
2022/07/05 12:21:54;;;;;;;;;;;;;;;-149.78;45.00;50021.63;5073631;28;20027;-69
2022/07/05 12:24:21;;;;;;;;;;;;;;;-149.78;43.59;50017.72;5073535;28;20016;-70
2022/07/05 12:26:47;;;;;;;;;;;;;;;-149.78;43.88;50009.91;5074376;28;19971;-70
2022/07/05 12:29:12;;;;;;;;;;;;;;;-149.78;44.70;50039.25;5075896;28;19920;-71